sensor_id;sensor_type;location;lat;lon;timestamp;pressure;altitude;pressure_sealevel;temperature;humidity
64066;BME280;50318;54.760;9.408;2022-08-21T00:01:22;101200.78;;;19.79;64.32
64066;BME280;50318;54.760;9.408;2022-08-21T00:03:49;101204.59;;;19.82;65.00
64066;BME280;50318;54.760;9.408;2022-08-21T00:06:16;101207.63;;;19.84;64.38
64066;BME280;50318;54.760;9.408;2022-08-21T00:08:42;101201.28;;;19.83;64.61
64066;BME280;50318;54.760;9.408;2022-08-21T00:11:08;101205.09;;;19.86;65.05
64066;BME280;50318;54.760;9.408;2022-08-21T00:13:36;101203.56;;;19.85;65.08
64066;BME280;50318;54.760;9.408;2022-08-21T00:16:03;101200.78;;;19.85;64.30
64066;BME280;50318;54.760;9.408;2022-08-21T00:18:29;101196.22;;;19.82;64.58
64066;BME280;50318;54.760;9.408;2022-08-21T00:20:54;101200.03;;;19.79;64.95
64066;BME280;50318;54.760;9.408;2022-08-21T00:23:20;101200.03;;;19.79;64.94
64066;BME280;50318;54.760;9.408;2022-08-21T00:25:46;101205.34;;;19.82;64.39
64066;BME280;50318;54.760;9.408;2022-08-21T00:28:13;101203.56;;;19.74;64.46
64066;BME280;50318;54.760;9.408;2022-08-21T00:30:39;101184.03;;;19.62;63.69
64066;BME280;50318;54.760;9.408;2022-08-21T00:33:06;101202.53;;;19.71;64.58
64066;BME280;50318;54.760;9.408;2022-08-21T00:35:35;101209.13;;;19.74;64.83
64066;BME280;50318;54.760;9.408;2022-08-21T00:38:03;101201.28;;;19.72;64.55
64066;BME280;50318;54.760;9.408;2022-08-21T00:43:09;101200.25;;;19.70;64.54
64066;BME280;50318;54.760;9.408;2022-08-21T00:45:36;101192.38;;;19.62;63.71
64066;BME280;50318;54.760;9.408;2022-08-21T00:48:06;101202.53;;;19.66;65.23
64066;BME280;50318;54.760;9.408;2022-08-21T00:50:35;101203.78;;;19.65;64.03
64066;BME280;50318;54.760;9.408;2022-08-21T00:53:06;101199.47;;;19.63;65.07
64066;BME280;50318;54.760;9.408;2022-08-21T00:55:59;101193.13;;;19.63;64.76
64066;BME280;50318;54.760;9.408;2022-08-21T00:58:29;101187.56;;;19.57;65.01
64066;BME280;50318;54.760;9.408;2022-08-21T01:00:56;101192.38;;;19.62;64.32
64066;BME280;50318;54.760;9.408;2022-08-21T01:03:25;101189.13;;;19.64;64.54
64066;BME280;50318;54.760;9.408;2022-08-21T01:05:51;101186.34;;;19.64;65.14
64066;BME280;50318;54.760;9.408;2022-08-21T01:08:18;101187.56;;;19.63;64.87
64066;BME280;50318;54.760;9.408;2022-08-21T01:10:45;101180.72;;;19.58;64.14
64066;BME280;50318;54.760;9.408;2022-08-21T01:13:14;101187.56;;;19.63;64.26
64066;BME280;50318;54.760;9.408;2022-08-21T01:15:43;101188.84;;;19.62;64.00
64066;BME280;50318;54.760;9.408;2022-08-21T01:18:12;101189.59;;;19.57;63.49
64066;BME280;50318;54.760;9.408;2022-08-21T01:20:43;101189.53;;;19.51;63.80
64066;BME280;50318;54.760;9.408;2022-08-21T01:23:09;101186.75;;;19.46;64.67
64066;BME280;50318;54.760;9.408;2022-08-21T01:25:35;101192.81;;;19.44;64.42
64066;BME280;50318;54.760;9.408;2022-08-21T01:28:07;101192.00;;;19.38;63.68
64066;BME280;50318;54.760;9.408;2022-08-21T01:30:35;101188.44;;;19.32;64.47
64066;BME280;50318;54.760;9.408;2022-08-21T01:33:03;101193.22;;;19.26;63.70
64066;BME280;50318;54.760;9.408;2022-08-21T01:35:29;101189.88;;;19.16;63.84
64066;BME280;50318;54.760;9.408;2022-08-21T01:37:55;101195.94;;;19.15;64.42
64066;BME280;50318;54.760;9.408;2022-08-21T01:40:24;101174.66;;;19.00;64.43
64066;BME280;50318;54.760;9.408;2022-08-21T01:42:50;101189.34;;;19.07;64.82
64066;BME280;50318;54.760;9.408;2022-08-21T01:45:17;101196.16;;;19.06;64.26
64066;BME280;50318;54.760;9.408;2022-08-21T01:47:43;101193.88;;;19.04;64.04
64066;BME280;50318;54.760;9.408;2022-08-21T01:50:12;101191.06;;;18.98;64.70
64066;BME280;50318;54.760;9.408;2022-08-21T01:52:38;101178.34;;;18.86;64.63
64066;BME280;50318;54.760;9.408;2022-08-21T01:55:06;101193.31;;;18.94;64.86
64066;BME280;50318;54.760;9.408;2022-08-21T01:57:32;101197.06;;;18.91;64.19
64066;BME280;50318;54.760;9.408;2022-08-21T01:59:58;101192.50;;;18.88;65.03
64066;BME280;50318;54.760;9.408;2022-08-21T02:02:26;101199.56;;;18.84;64.78
64066;BME280;50318;54.760;9.408;2022-08-21T02:04:52;101198.03;;;18.83;64.67
64066;BME280;50318;54.760;9.408;2022-08-21T02:07:18;101188.13;;;18.76;64.87
64066;BME280;50318;54.760;9.408;2022-08-21T02:09:44;101192.22;;;18.81;65.16
64066;BME280;50318;54.760;9.408;2022-08-21T02:12:10;101191.69;;;18.77;64.21
64066;BME280;50318;54.760;9.408;2022-08-21T02:14:36;101198.72;;;18.72;64.18
64066;BME280;50318;54.760;9.408;2022-08-21T02:17:02;101181.66;;;18.59;64.91
64066;BME280;50318;54.760;9.408;2022-08-21T02:19:28;101189.56;;;18.66;65.05
64066;BME280;50318;54.760;9.408;2022-08-21T02:21:54;101193.53;;;18.59;64.66
64066;BME280;50318;54.760;9.408;2022-08-21T02:24:20;101192.28;;;18.60;64.80
64066;BME280;50318;54.760;9.408;2022-08-21T02:26:45;101183.38;;;18.51;64.52
64066;BME280;50318;54.760;9.408;2022-08-21T02:29:12;101183.38;;;18.51;64.64
64066;BME280;50318;54.760;9.408;2022-08-21T02:31:38;101179.25;;;18.40;65.32
64066;BME280;50318;54.760;9.408;2022-08-21T02:34:03;101175.16;;;18.36;65.36
64066;BME280;50318;54.760;9.408;2022-08-21T02:36:29;101185.28;;;18.39;65.20
64066;BME280;50318;54.760;9.408;2022-08-21T02:38:55;101183.81;;;18.44;65.55
64066;BME280;50318;54.760;9.408;2022-08-21T02:41:21;101172.44;;;18.41;64.80
64066;BME280;50318;54.760;9.408;2022-08-21T02:43:48;101177.72;;;18.39;65.22
64066;BME280;50318;54.760;9.408;2022-08-21T02:46:16;101169.91;;;18.44;66.29
64066;BME280;50318;54.760;9.408;2022-08-21T02:48:43;101167.63;;;18.42;65.70
64066;BME280;50318;54.760;9.408;2022-08-21T02:51:12;101170.47;;;18.48;64.88
64066;BME280;50318;54.760;9.408;2022-08-21T02:53:39;101171.94;;;18.43;65.17
64066;BME280;50318;54.760;9.408;2022-08-21T02:56:08;101163.84;;;18.39;65.53
64066;BME280;50318;54.760;9.408;2022-08-21T02:58:37;101162.09;;;18.42;65.52
64066;BME280;50318;54.760;9.408;2022-08-21T03:01:05;101158.53;;;18.41;65.59
64066;BME280;50318;54.760;9.408;2022-08-21T03:03:36;101166.13;;;18.41;65.71
64066;BME280;50318;54.760;9.408;2022-08-21T03:06:03;101157.53;;;18.39;64.84
64066;BME280;50318;54.760;9.408;2022-08-21T03:08:29;101157.75;;;18.35;65.39
64066;BME280;50318;54.760;9.408;2022-08-21T03:10:55;101153.44;;;18.34;65.86
64066;BME280;50318;54.760;9.408;2022-08-21T03:13:21;101153.94;;;18.33;65.05
64066;BME280;50318;54.760;9.408;2022-08-21T03:15:48;101152.91;;;18.30;64.81
64066;BME280;50318;54.760;9.408;2022-08-21T03:18:15;101146.34;;;18.28;66.46
64066;BME280;50318;54.760;9.408;2022-08-21T03:20:42;101138.50;;;18.26;66.53
64066;BME280;50318;54.760;9.408;2022-08-21T03:23:08;101143.34;;;18.31;65.79
64066;BME280;50318;54.760;9.408;2022-08-21T03:25:35;101130.69;;;18.30;65.23
64066;BME280;50318;54.760;9.408;2022-08-21T03:28:02;101143.34;;;18.31;65.35
64066;BME280;50318;54.760;9.408;2022-08-21T03:30:28;101131.69;;;18.27;65.27
64066;BME280;50318;54.760;9.408;2022-08-21T03:33:00;101143.81;;;18.30;65.37
64066;BME280;50318;54.760;9.408;2022-08-21T03:35:27;101140.78;;;18.28;65.47
64066;BME280;50318;54.760;9.408;2022-08-21T03:37:53;101144.06;;;18.26;65.17
64066;BME280;50318;54.760;9.408;2022-08-21T03:40:24;101138.72;;;18.23;65.32
64066;BME280;50318;54.760;9.408;2022-08-21T03:42:50;101142.53;;;18.25;65.76
64066;BME280;50318;54.760;9.408;2022-08-21T03:45:18;101141.50;;;18.23;64.61
64066;BME280;50318;54.760;9.408;2022-08-21T03:47:52;101135.88;;;18.17;65.17
64066;BME280;50318;54.760;9.408;2022-08-21T03:50:18;101146.22;;;18.17;65.73
64066;BME280;50318;54.760;9.408;2022-08-21T03:52:44;101137.41;;;18.18;66.18
64066;BME280;50318;54.760;9.408;2022-08-21T03:55:10;101148.50;;;18.18;65.54
64066;BME280;50318;54.760;9.408;2022-08-21T03:57:36;101134.59;;;18.13;66.11
64066;BME280;50318;54.760;9.408;2022-08-21T04:00:03;101138.63;;;18.12;66.44
64066;BME280;50318;54.760;9.408;2022-08-21T04:02:56;101145.19;;;18.14;66.03
64066;BME280;50318;54.760;9.408;2022-08-21T04:05:22;101150.03;;;18.19;65.97
64066;BME280;50318;54.760;9.408;2022-08-21T04:07:59;101148.50;;;18.18;66.34
64066;BME280;50318;54.760;9.408;2022-08-21T04:10:30;101144.47;;;18.19;66.09
64066;BME280;50318;54.760;9.408;2022-08-21T04:12:56;101147.53;;;18.21;66.22
64066;BME280;50318;54.760;9.408;2022-08-21T04:15:23;101145.03;;;18.23;65.88
64066;BME280;50318;54.760;9.408;2022-08-21T04:17:50;101141.28;;;18.26;65.79
64066;BME280;50318;54.760;9.408;2022-08-21T04:20:17;101149.88;;;18.28;65.70
64066;BME280;50318;54.760;9.408;2022-08-21T04:23:06;101137.25;;;18.27;65.19
64066;BME280;50318;54.760;9.408;2022-08-21T04:25:32;101141.28;;;18.26;64.68
64066;BME280;50318;54.760;9.408;2022-08-21T04:27:57;101135.19;;;18.22;64.89
64066;BME280;50318;54.760;9.408;2022-08-21T04:30:24;101138.94;;;18.19;64.86
64066;BME280;50318;54.760;9.408;2022-08-21T04:32:50;101130.88;;;18.21;65.91
64066;BME280;50318;54.760;9.408;2022-08-21T04:35:21;101143.06;;;18.29;65.26
64066;BME280;50318;54.760;9.408;2022-08-21T04:37:47;101126.38;;;18.24;65.86
64066;BME280;50318;54.760;9.408;2022-08-21T04:40:15;101142.06;;;18.32;65.74
64066;BME280;50318;54.760;9.408;2022-08-21T04:42:47;101142.88;;;18.38;65.45
64066;BME280;50318;54.760;9.408;2022-08-21T04:45:39;101137.81;;;18.37;64.58
64066;BME280;50318;54.760;9.408;2022-08-21T04:48:08;101112.91;;;18.17;64.35
64066;BME280;50318;54.760;9.408;2022-08-21T04:50:43;101134.00;;;18.34;65.51
64066;BME280;50318;54.760;9.408;2022-08-21T04:53:16;101125.94;;;18.36;65.08
64066;BME280;50318;54.760;9.408;2022-08-21T04:55:43;101130.75;;;18.36;64.24
64066;BME280;50318;54.760;9.408;2022-08-21T04:58:12;101134.81;;;18.40;65.77
64066;BME280;50318;54.760;9.408;2022-08-21T05:00:38;101135.06;;;18.42;64.95
64066;BME280;50318;54.760;9.408;2022-08-21T05:03:06;101137.84;;;18.42;64.17
64066;BME280;50318;54.760;9.408;2022-08-21T05:05:33;101147.50;;;18.47;65.36
64066;BME280;50318;54.760;9.408;2022-08-21T05:08:01;101140.22;;;18.55;65.19
64066;BME280;50318;54.760;9.408;2022-08-21T05:10:28;101141.50;;;18.60;65.19
64066;BME280;50318;54.760;9.408;2022-08-21T05:12:54;101143.03;;;18.61;64.57
64066;BME280;50318;54.760;9.408;2022-08-21T05:15:20;101148.91;;;18.68;65.21
64066;BME280;50318;54.760;9.408;2022-08-21T05:17:46;101150.50;;;18.75;65.10
64066;BME280;50318;54.760;9.408;2022-08-21T05:20:13;101150.78;;;18.83;64.90
64066;BME280;50318;54.760;9.408;2022-08-21T05:22:40;101153.06;;;18.84;63.90
64066;BME280;50318;54.760;9.408;2022-08-21T05:25:06;101145.00;;;18.86;64.84
64066;BME280;50318;54.760;9.408;2022-08-21T05:27:33;101144.53;;;18.93;64.44
64066;BME280;50318;54.760;9.408;2022-08-21T05:29:58;101152.16;;;18.98;64.54
64066;BME280;50318;54.760;9.408;2022-08-21T05:32:24;101146.09;;;19.00;63.46
64066;BME280;50318;54.760;9.408;2022-08-21T05:34:50;101153.16;;;19.01;64.49
64066;BME280;50318;54.760;9.408;2022-08-21T05:37:16;101150.16;;;19.05;64.60
64066;BME280;50318;54.760;9.408;2022-08-21T05:39:42;101150.47;;;19.18;64.88
64066;BME280;50318;54.760;9.408;2022-08-21T05:42:08;101151.25;;;19.24;64.56
64066;BME280;50318;54.760;9.408;2022-08-21T05:44:33;101139.13;;;19.27;65.09
64066;BME280;50318;54.760;9.408;2022-08-21T05:47:07;101147.00;;;19.40;64.80
64066;BME280;50318;54.760;9.408;2022-08-21T05:49:33;101141.47;;;19.45;64.07
64066;BME280;50318;54.760;9.408;2022-08-21T05:51:58;101146.31;;;19.56;64.24
64066;BME280;50318;54.760;9.408;2022-08-21T05:54:24;101147.38;;;19.64;63.08
64066;BME280;50318;54.760;9.408;2022-08-21T05:56:50;101152.44;;;19.71;63.13
64066;BME280;50318;54.760;9.408;2022-08-21T05:59:17;101149.66;;;19.77;63.59
64066;BME280;50318;54.760;9.408;2022-08-21T06:01:44;101151.94;;;19.84;63.83
64066;BME280;50318;54.760;9.408;2022-08-21T06:04:11;101144.38;;;19.90;64.10
64066;BME280;50318;54.760;9.408;2022-08-21T06:06:37;101148.69;;;19.97;63.64
64066;BME280;50318;54.760;9.408;2022-08-21T06:09:03;101142.38;;;20.02;62.58
64066;BME280;50318;54.760;9.408;2022-08-21T06:11:29;101139.84;;;19.98;63.32
64066;BME280;50318;54.760;9.408;2022-08-21T06:13:55;101127.94;;;20.03;64.45
64066;BME280;50318;54.760;9.408;2022-08-21T06:16:21;101137.56;;;20.13;63.25
64066;BME280;50318;54.760;9.408;2022-08-21T06:18:48;101129.72;;;20.17;64.49
64066;BME280;50318;54.760;9.408;2022-08-21T06:21:14;101137.28;;;20.34;63.65
64066;BME280;50318;54.760;9.408;2022-08-21T06:23:41;101131.75;;;20.39;63.54
64066;BME280;50318;54.760;9.408;2022-08-21T06:26:08;101133.00;;;20.49;62.35
64066;BME280;50318;54.760;9.408;2022-08-21T06:28:35;101139.09;;;20.53;61.86
64066;BME280;50318;54.760;9.408;2022-08-21T06:31:01;101135.78;;;20.55;62.43
64066;BME280;50318;54.760;9.408;2022-08-21T06:33:26;101129.44;;;20.66;63.48
64066;BME280;50318;54.760;9.408;2022-08-21T06:35:52;101132.19;;;20.77;63.67
64066;BME280;50318;54.760;9.408;2022-08-21T06:38:18;101138.28;;;20.87;62.56
64066;BME280;50318;54.760;9.408;2022-08-21T06:40:44;101130.38;;;20.96;63.90
64066;BME280;50318;54.760;9.408;2022-08-21T06:43:15;101132.63;;;21.09;62.37
64066;BME280;50318;54.760;9.408;2022-08-21T06:45:41;101126.50;;;21.16;62.68
64066;BME280;50318;54.760;9.408;2022-08-21T06:48:07;101136.13;;;21.26;62.17
64066;BME280;50318;54.760;9.408;2022-08-21T06:50:33;101135.59;;;21.33;63.02
64066;BME280;50318;54.760;9.408;2022-08-21T06:53:05;101128.47;;;21.38;61.63
64066;BME280;50318;54.760;9.408;2022-08-21T06:55:32;101132.69;;;21.50;62.65
64066;BME280;50318;54.760;9.408;2022-08-21T06:57:58;101127.88;;;21.51;62.43
64066;BME280;50318;54.760;9.408;2022-08-21T07:00:24;101134.16;;;21.62;61.45
64066;BME280;50318;54.760;9.408;2022-08-21T07:02:50;101126.03;;;21.64;61.67
64066;BME280;50318;54.760;9.408;2022-08-21T07:05:16;101133.59;;;21.69;59.68
64066;BME280;50318;54.760;9.408;2022-08-21T07:07:42;101117.59;;;21.70;60.99
64066;BME280;50318;54.760;9.408;2022-08-21T07:10:08;101111.50;;;21.77;60.58
64066;BME280;50318;54.760;9.408;2022-08-21T07:12:37;101106.38;;;21.81;60.60
64066;BME280;50318;54.760;9.408;2022-08-21T07:15:03;101123.50;;;21.96;59.38
64066;BME280;50318;54.760;9.408;2022-08-21T07:17:29;101119.44;;;21.97;58.88
64066;BME280;50318;54.760;9.408;2022-08-21T07:19:54;101118.66;;;22.02;59.13
64066;BME280;50318;54.760;9.408;2022-08-21T07:22:20;101113.81;;;22.09;59.00
64066;BME280;50318;54.760;9.408;2022-08-21T07:24:46;101128.44;;;22.20;57.51
64066;BME280;50318;54.760;9.408;2022-08-21T07:27:12;101117.78;;;22.19;58.21
64066;BME280;50318;54.760;9.408;2022-08-21T07:29:38;101116.66;;;22.33;59.48
64066;BME280;50318;54.760;9.408;2022-08-21T07:32:04;101117.41;;;22.33;57.68
64066;BME280;50318;54.760;9.408;2022-08-21T07:34:30;101118.03;;;22.45;56.82
64066;BME280;50318;54.760;9.408;2022-08-21T07:36:56;101120.81;;;22.51;58.17
64066;BME280;50318;54.760;9.408;2022-08-21T07:39:22;101125.88;;;22.52;55.34
64066;BME280;50318;54.760;9.408;2022-08-21T07:41:48;101116.38;;;22.61;55.98
64066;BME280;50318;54.760;9.408;2022-08-21T07:44:14;101118.81;;;22.70;56.20
64066;BME280;50318;54.760;9.408;2022-08-21T07:46:39;101109.09;;;22.77;56.47
64066;BME280;50318;54.760;9.408;2022-08-21T07:49:05;101109.81;;;22.83;57.11
64066;BME280;50318;54.760;9.408;2022-08-21T07:51:33;101113.50;;;22.91;57.51
64066;BME280;50318;54.760;9.408;2022-08-21T07:54:00;101110.59;;;23.02;57.21
64066;BME280;50318;54.760;9.408;2022-08-21T07:56:27;101106.38;;;23.14;57.91
64066;BME280;50318;54.760;9.408;2022-08-21T07:58:53;101107.44;;;23.30;56.95
64066;BME280;50318;54.760;9.408;2022-08-21T08:01:20;101109.50;;;23.48;56.46
64066;BME280;50318;54.760;9.408;2022-08-21T08:03:46;101102.84;;;23.70;56.76
64066;BME280;50318;54.760;9.408;2022-08-21T08:06:11;101113.06;;;24.00;56.51
64066;BME280;50318;54.760;9.408;2022-08-21T08:08:39;101104.72;;;24.26;54.79
64066;BME280;50318;54.760;9.408;2022-08-21T08:11:06;101109.75;;;24.46;55.03
64066;BME280;50318;54.760;9.408;2022-08-21T08:13:38;101108.03;;;24.70;54.43
64066;BME280;50318;54.760;9.408;2022-08-21T08:16:04;101103.69;;;24.82;54.13
64066;BME280;50318;54.760;9.408;2022-08-21T08:18:29;101103.47;;;25.06;53.97
64066;BME280;50318;54.760;9.408;2022-08-21T08:20:55;101099.16;;;25.19;52.84
64066;BME280;50318;54.760;9.408;2022-08-21T08:23:21;101100.41;;;25.31;53.35
64066;BME280;50318;54.760;9.408;2022-08-21T08:25:48;101108.88;;;25.52;52.90
64066;BME280;50318;54.760;9.408;2022-08-21T08:28:14;101108.72;;;25.70;52.61
64066;BME280;50318;54.760;9.408;2022-08-21T08:30:46;101104.38;;;25.83;51.41
64066;BME280;50318;54.760;9.408;2022-08-21T08:33:12;101099.16;;;25.87;51.78
64066;BME280;50318;54.760;9.408;2022-08-21T08:36:03;101104.84;;;25.94;51.83
64066;BME280;50318;54.760;9.408;2022-08-21T08:38:29;101103.47;;;26.09;51.72
64066;BME280;50318;54.760;9.408;2022-08-21T08:41:15;101107.09;;;26.17;51.19
64066;BME280;50318;54.760;9.408;2022-08-21T08:43:47;101099.81;;;26.21;50.60
64066;BME280;50318;54.760;9.408;2022-08-21T08:46:16;101100.75;;;26.24;50.03
64066;BME280;50318;54.760;9.408;2022-08-21T08:48:58;101097.81;;;26.29;50.83
64066;BME280;50318;54.760;9.408;2022-08-21T08:51:40;101093.50;;;26.28;50.32
64066;BME280;50318;54.760;9.408;2022-08-21T08:54:15;101087.97;;;26.36;50.43
64066;BME280;50318;54.760;9.408;2022-08-21T08:56:44;101085.16;;;26.36;49.79
64066;BME280;50318;54.760;9.408;2022-08-21T08:59:20;101084.16;;;26.34;50.36
64066;BME280;50318;54.760;9.408;2022-08-21T09:01:48;101080.47;;;26.39;51.27
64066;BME280;50318;54.760;9.408;2022-08-21T09:04:20;101076.19;;;26.45;50.36
64066;BME280;50318;54.760;9.408;2022-08-21T09:10:17;101082.28;;;26.57;49.10
64066;BME280;50318;54.760;9.408;2022-08-21T09:13:23;101065.97;;;26.55;49.48
64066;BME280;50318;54.760;9.408;2022-08-21T09:15:46;101085.53;;;26.69;48.99
64066;BME280;50318;54.760;9.408;2022-08-21T09:26:23;101065.47;;;27.08;49.33
64066;BME280;50318;54.760;9.408;2022-08-21T09:28:55;101054.97;;;27.01;48.55
64066;BME280;50318;54.760;9.408;2022-08-21T09:31:33;101065.25;;;26.99;48.31
64066;BME280;50318;54.760;9.408;2022-08-21T09:34:09;101060.94;;;26.98;48.04
64066;BME280;50318;54.760;9.408;2022-08-21T09:36:47;101064.50;;;26.98;48.92
64066;BME280;50318;54.760;9.408;2022-08-21T09:39:29;101070.88;;;26.99;47.83
64066;BME280;50318;54.760;9.408;2022-08-21T09:42:04;101054.22;;;27.01;48.19
64066;BME280;50318;54.760;9.408;2022-08-21T09:44:34;101058.91;;;27.06;46.01
64066;BME280;50318;54.760;9.408;2022-08-21T09:47:05;101052.25;;;26.96;44.61
64066;BME280;50318;54.760;9.408;2022-08-21T09:49:36;101051.69;;;26.89;44.47
64066;BME280;50318;54.760;9.408;2022-08-21T09:52:05;101068.56;;;26.89;45.84
64066;BME280;50318;54.760;9.408;2022-08-21T09:54:39;101062.38;;;26.91;46.25
64066;BME280;50318;54.760;9.408;2022-08-21T09:59:54;101052.25;;;26.96;44.53
64066;BME280;50318;54.760;9.408;2022-08-21T10:04:54;101077.34;;;26.78;45.51
64066;BME280;50318;54.760;9.408;2022-08-21T10:07:22;101055.72;;;26.73;44.45
64066;BME280;50318;54.760;9.408;2022-08-21T10:24:09;101047.28;;;26.73;46.85
64066;BME280;50318;54.760;9.408;2022-08-21T10:29:56;101047.81;;;26.64;47.26
64066;BME280;50318;54.760;9.408;2022-08-21T10:35:27;101046.53;;;26.73;47.57
64066;BME280;50318;54.760;9.408;2022-08-21T10:38:27;101053.91;;;26.83;46.27
64066;BME280;50318;54.760;9.408;2022-08-21T10:49:42;101059.25;;;26.66;46.08
64066;BME280;50318;54.760;9.408;2022-08-21T10:54:55;101056.84;;;26.70;45.61
64066;BME280;50318;54.760;9.408;2022-08-21T10:57:40;101055.59;;;26.79;46.19
64066;BME280;50318;54.760;9.408;2022-08-21T11:00:23;101047.34;;;26.88;45.44
64066;BME280;50318;54.760;9.408;2022-08-21T11:05:33;101057.50;;;26.91;45.15
64066;BME280;50318;54.760;9.408;2022-08-21T11:10:38;101054.50;;;26.89;45.67
64066;BME280;50318;54.760;9.408;2022-08-21T11:13:27;101045.88;;;26.95;45.43
64066;BME280;50318;54.760;9.408;2022-08-21T11:29:33;101054.88;;;27.37;46.85
64066;BME280;50318;54.760;9.408;2022-08-21T11:32:28;101059.38;;;27.40;46.89
64066;BME280;50318;54.760;9.408;2022-08-21T11:46:01;101053.44;;;27.74;45.60
64066;BME280;50318;54.760;9.408;2022-08-21T11:50:51;101057.00;;;27.67;46.81
64066;BME280;50318;54.760;9.408;2022-08-21T11:55:51;101049.78;;;27.43;47.60
64066;BME280;50318;54.760;9.408;2022-08-21T11:58:26;101056.59;;;27.48;47.80
64066;BME280;50318;54.760;9.408;2022-08-21T12:01:25;101058.84;;;27.49;46.87
64066;BME280;50318;54.760;9.408;2022-08-21T12:04:08;101062.97;;;27.48;47.40
64066;BME280;50318;54.760;9.408;2022-08-21T12:06:36;101060.72;;;27.55;48.22
64066;BME280;50318;54.760;9.408;2022-08-21T12:11:48;101062.03;;;27.53;47.71
64066;BME280;50318;54.760;9.408;2022-08-21T12:14:17;101068.59;;;27.48;48.22
64066;BME280;50318;54.760;9.408;2022-08-21T12:16:45;101060.13;;;27.33;49.04
64066;BME280;50318;54.760;9.408;2022-08-21T12:24:51;101065.56;;;27.39;49.62
64066;BME280;50318;54.760;9.408;2022-08-21T12:27:30;101074.19;;;27.33;49.44
64066;BME280;50318;54.760;9.408;2022-08-21T12:30:22;101068.91;;;27.22;50.20
64066;BME280;50318;54.760;9.408;2022-08-21T12:33:03;101067.00;;;27.09;50.81
64066;BME280;50318;54.760;9.408;2022-08-21T12:35:38;101077.41;;;26.93;51.56
64066;BME280;50318;54.760;9.408;2022-08-21T12:38:17;101077.16;;;26.76;52.14
64066;BME280;50318;54.760;9.408;2022-08-21T12:43:35;101064.50;;;26.62;51.79
64066;BME280;50318;54.760;9.408;2022-08-21T12:46:03;101082.34;;;26.72;51.28
64066;BME280;50318;54.760;9.408;2022-08-21T12:49:12;101070.59;;;26.81;52.25
64066;BME280;50318;54.760;9.408;2022-08-21T12:54:27;101068.47;;;27.03;51.16
64066;BME280;50318;54.760;9.408;2022-08-21T12:57:02;101061.69;;;26.98;51.49
64066;BME280;50318;54.760;9.408;2022-08-21T12:59:29;101067.31;;;26.98;51.39
64066;BME280;50318;54.760;9.408;2022-08-21T13:01:56;101050.72;;;26.79;51.81
64066;BME280;50318;54.760;9.408;2022-08-21T13:04:35;101066.88;;;26.86;51.57
64066;BME280;50318;54.760;9.408;2022-08-21T13:07:07;101066.13;;;26.86;51.84
64066;BME280;50318;54.760;9.408;2022-08-21T13:09:48;101070.06;;;26.90;51.62
64066;BME280;50318;54.760;9.408;2022-08-21T13:12:16;101070.66;;;26.97;51.25
64066;BME280;50318;54.760;9.408;2022-08-21T13:14:44;101063.22;;;27.07;51.74
64066;BME280;50318;54.760;9.408;2022-08-21T13:17:14;101064.56;;;27.13;50.60
64066;BME280;50318;54.760;9.408;2022-08-21T13:20:27;101066.78;;;27.07;48.96
64066;BME280;50318;54.760;9.408;2022-08-21T13:22:53;101066.22;;;27.01;50.02
64066;BME280;50318;54.760;9.408;2022-08-21T13:25:24;101058.34;;;27.07;49.98
64066;BME280;50318;54.760;9.408;2022-08-21T13:28:09;101061.94;;;27.15;49.46
64066;BME280;50318;54.760;9.408;2022-08-21T13:30:52;101068.66;;;27.05;49.58
64066;BME280;50318;54.760;9.408;2022-08-21T13:33:21;101066.13;;;26.93;49.54
64066;BME280;50318;54.760;9.408;2022-08-21T13:36:05;101068.94;;;26.86;49.77
64066;BME280;50318;54.760;9.408;2022-08-21T13:38:35;101061.22;;;26.79;50.50
64066;BME280;50318;54.760;9.408;2022-08-21T13:41:05;101058.22;;;26.84;50.20
64066;BME280;50318;54.760;9.408;2022-08-21T13:43:36;101054.22;;;27.01;49.35
64066;BME280;50318;54.760;9.408;2022-08-21T13:46:07;101054.97;;;27.09;49.46
64066;BME280;50318;54.760;9.408;2022-08-21T13:48:36;101061.94;;;27.15;48.26
64066;BME280;50318;54.760;9.408;2022-08-21T13:51:02;101055.56;;;27.15;49.06
64066;BME280;50318;54.760;9.408;2022-08-21T13:56:00;101051.66;;;27.26;48.34
64066;BME280;50318;54.760;9.408;2022-08-21T13:58:40;101069.31;;;27.26;47.78
64066;BME280;50318;54.760;9.408;2022-08-21T14:01:21;101058.00;;;27.18;46.64
64066;BME280;50318;54.760;9.408;2022-08-21T14:03:49;101062.31;;;27.19;47.47
64066;BME280;50318;54.760;9.408;2022-08-21T14:06:20;101054.63;;;27.20;47.40
64066;BME280;50318;54.760;9.408;2022-08-21T14:08:50;101061.41;;;27.25;48.17
64066;BME280;50318;54.760;9.408;2022-08-21T14:11:17;101061.41;;;27.25;48.01
64066;BME280;50318;54.760;9.408;2022-08-21T14:13:48;101060.13;;;27.33;47.75
64066;BME280;50318;54.760;9.408;2022-08-21T14:16:21;101072.69;;;27.32;47.45
64066;BME280;50318;54.760;9.408;2022-08-21T14:18:50;101064.81;;;27.38;48.00
64066;BME280;50318;54.760;9.408;2022-08-21T14:21:45;101070.47;;;27.46;47.84
64066;BME280;50318;54.760;9.408;2022-08-21T14:26:51;101069.31;;;27.41;46.53
64066;BME280;50318;54.760;9.408;2022-08-21T14:29:19;101071.00;;;27.37;45.53
64066;BME280;50318;54.760;9.408;2022-08-21T14:31:51;101072.72;;;27.40;45.89
64066;BME280;50318;54.760;9.408;2022-08-21T14:34:17;101080.59;;;27.41;46.27
64066;BME280;50318;54.760;9.408;2022-08-21T14:36:43;101072.72;;;27.40;46.34
64066;BME280;50318;54.760;9.408;2022-08-21T14:39:09;101068.94;;;27.30;45.62
64066;BME280;50318;54.760;9.408;2022-08-21T14:41:35;101071.75;;;27.22;46.25
64066;BME280;50318;54.760;9.408;2022-08-21T14:44:02;101082.97;;;27.14;45.89
64066;BME280;50318;54.760;9.408;2022-08-21T14:46:30;101078.81;;;27.08;46.71
64066;BME280;50318;54.760;9.408;2022-08-21T14:49:18;101070.38;;;27.08;46.85